sensor_id;sensor_type;location;lat;lon;timestamp;P1;durP1;ratioP1;P2;durP2;ratioP2
42196;SDS011;27866;48.146;17.098;2023-05-14T00:02:48;16.95;;;11.43;;
42196;SDS011;27866;48.146;17.098;2023-05-14T00:06:59;13.45;;;10.35;;
42196;SDS011;27866;48.146;17.098;2023-05-14T00:11:11;13.60;;;9.57;;
42196;SDS011;27866;48.146;17.098;2023-05-14T00:15:22;12.93;;;11.05;;
42196;SDS011;27866;48.146;17.098;2023-05-14T00:19:33;12.50;;;10.00;;
42196;SDS011;27866;48.146;17.098;2023-05-14T00:23:44;15.85;;;10.77;;
42196;SDS011;27866;48.146;17.098;2023-05-14T00:27:56;14.77;;;10.35;;
42196;SDS011;27866;48.146;17.098;2023-05-14T00:32:07;14.88;;;11.23;;
42196;SDS011;27866;48.146;17.098;2023-05-14T00:36:18;13.30;;;10.50;;
42196;SDS011;27866;48.146;17.098;2023-05-14T00:40:29;14.10;;;10.30;;
42196;SDS011;27866;48.146;17.098;2023-05-14T00:44:40;14.27;;;11.23;;
42196;SDS011;27866;48.146;17.098;2023-05-14T00:48:52;12.98;;;10.57;;
42196;SDS011;27866;48.146;17.098;2023-05-14T00:53:03;13.23;;;10.35;;
42196;SDS011;27866;48.146;17.098;2023-05-14T00:57:19;15.05;;;10.18;;
42196;SDS011;27866;48.146;17.098;2023-05-14T01:01:31;16.27;;;10.38;;
42196;SDS011;27866;48.146;17.098;2023-05-14T01:05:48;13.15;;;9.50;;
42196;SDS011;27866;48.146;17.098;2023-05-14T01:10:14;11.55;;;8.93;;
42196;SDS011;27866;48.146;17.098;2023-05-14T01:23:53;14.45;;;9.85;;
42196;SDS011;27866;48.146;17.098;2023-05-14T01:28:05;12.40;;;8.90;;
42196;SDS011;27866;48.146;17.098;2023-05-14T01:32:29;12.02;;;7.85;;
42196;SDS011;27866;48.146;17.098;2023-05-14T01:36:42;12.52;;;7.68;;
42196;SDS011;27866;48.146;17.098;2023-05-14T01:40:54;11.15;;;7.63;;
42196;SDS011;27866;48.146;17.098;2023-05-14T01:45:06;10.70;;;7.80;;
42196;SDS011;27866;48.146;17.098;2023-05-14T01:49:19;8.57;;;7.15;;
42196;SDS011;27866;48.146;17.098;2023-05-14T01:53:30;8.27;;;7.05;;
42196;SDS011;27866;48.146;17.098;2023-05-14T01:57:44;10.60;;;7.03;;
42196;SDS011;27866;48.146;17.098;2023-05-14T02:01:55;9.27;;;6.88;;
42196;SDS011;27866;48.146;17.098;2023-05-14T02:06:06;12.13;;;6.70;;
42196;SDS011;27866;48.146;17.098;2023-05-14T02:10:17;8.60;;;7.10;;
42196;SDS011;27866;48.146;17.098;2023-05-14T02:14:33;8.05;;;6.20;;
42196;SDS011;27866;48.146;17.098;2023-05-14T02:18:44;8.30;;;6.63;;
42196;SDS011;27866;48.146;17.098;2023-05-14T02:22:55;10.82;;;6.25;;
42196;SDS011;27866;48.146;17.098;2023-05-14T02:27:06;10.02;;;6.50;;
42196;SDS011;27866;48.146;17.098;2023-05-14T02:31:17;11.50;;;8.55;;
42196;SDS011;27866;48.146;17.098;2023-05-14T02:35:29;27.35;;;14.52;;
42196;SDS011;27866;48.146;17.098;2023-05-14T02:39:40;17.50;;;10.93;;
42196;SDS011;27866;48.146;17.098;2023-05-14T02:43:51;14.10;;;9.50;;
42196;SDS011;27866;48.146;17.098;2023-05-14T02:48:05;16.60;;;8.90;;
42196;SDS011;27866;48.146;17.098;2023-05-14T02:52:16;12.30;;;8.70;;
42196;SDS011;27866;48.146;17.098;2023-05-14T02:56:27;10.77;;;8.13;;
42196;SDS011;27866;48.146;17.098;2023-05-14T03:00:38;10.55;;;7.40;;
42196;SDS011;27866;48.146;17.098;2023-05-14T03:04:50;11.10;;;7.47;;
42196;SDS011;27866;48.146;17.098;2023-05-14T03:09:01;12.32;;;7.85;;
42196;SDS011;27866;48.146;17.098;2023-05-14T03:13:12;10.63;;;7.47;;
42196;SDS011;27866;48.146;17.098;2023-05-14T03:21:38;10.60;;;6.47;;
42196;SDS011;27866;48.146;17.098;2023-05-14T03:25:49;12.30;;;6.25;;
42196;SDS011;27866;48.146;17.098;2023-05-14T03:30:01;8.02;;;6.25;;
42196;SDS011;27866;48.146;17.098;2023-05-14T03:34:12;13.65;;;7.32;;
42196;SDS011;27866;48.146;17.098;2023-05-14T03:38:23;9.32;;;6.47;;
42196;SDS011;27866;48.146;17.098;2023-05-14T03:42:34;8.65;;;6.28;;
42196;SDS011;27866;48.146;17.098;2023-05-14T03:46:46;8.80;;;5.75;;
42196;SDS011;27866;48.146;17.098;2023-05-14T03:50:57;8.57;;;5.53;;
42196;SDS011;27866;48.146;17.098;2023-05-14T03:55:09;10.40;;;5.65;;
42196;SDS011;27866;48.146;17.098;2023-05-14T03:59:20;8.63;;;5.72;;
42196;SDS011;27866;48.146;17.098;2023-05-14T04:03:31;9.55;;;5.63;;
42196;SDS011;27866;48.146;17.098;2023-05-14T04:07:42;7.82;;;5.68;;
42196;SDS011;27866;48.146;17.098;2023-05-14T04:11:55;7.50;;;5.50;;
42196;SDS011;27866;48.146;17.098;2023-05-14T04:16:06;11.60;;;5.40;;
42196;SDS011;27866;48.146;17.098;2023-05-14T04:20:18;7.82;;;5.38;;
42196;SDS011;27866;48.146;17.098;2023-05-14T04:24:30;11.27;;;5.38;;
42196;SDS011;27866;48.146;17.098;2023-05-14T04:28:41;7.47;;;4.95;;
42196;SDS011;27866;48.146;17.098;2023-05-14T04:32:52;8.55;;;4.68;;
42196;SDS011;27866;48.146;17.098;2023-05-14T04:37:03;5.78;;;4.60;;
42196;SDS011;27866;48.146;17.098;2023-05-14T04:41:14;6.70;;;4.70;;
42196;SDS011;27866;48.146;17.098;2023-05-14T04:45:26;7.50;;;4.80;;
42196;SDS011;27866;48.146;17.098;2023-05-14T04:49:37;7.05;;;4.88;;
42196;SDS011;27866;48.146;17.098;2023-05-14T04:53:48;8.05;;;5.10;;
42196;SDS011;27866;48.146;17.098;2023-05-14T04:57:59;6.55;;;4.68;;
42196;SDS011;27866;48.146;17.098;2023-05-14T05:02:11;11.32;;;5.22;;
42196;SDS011;27866;48.146;17.098;2023-05-14T05:06:22;6.80;;;5.43;;
42196;SDS011;27866;48.146;17.098;2023-05-14T05:10:33;6.80;;;5.53;;
42196;SDS011;27866;48.146;17.098;2023-05-14T05:14:45;7.25;;;5.53;;
42196;SDS011;27866;48.146;17.098;2023-05-14T05:18:56;10.27;;;6.53;;
42196;SDS011;27866;48.146;17.098;2023-05-14T05:23:07;7.60;;;6.03;;
42196;SDS011;27866;48.146;17.098;2023-05-14T05:27:18;7.50;;;5.28;;
42196;SDS011;27866;48.146;17.098;2023-05-14T05:31:31;8.02;;;5.85;;
42196;SDS011;27866;48.146;17.098;2023-05-14T05:35:42;9.85;;;6.35;;
42196;SDS011;27866;48.146;17.098;2023-05-14T05:39:54;12.45;;;6.03;;
42196;SDS011;27866;48.146;17.098;2023-05-14T05:44:05;12.55;;;7.78;;
42196;SDS011;27866;48.146;17.098;2023-05-14T05:48:16;10.60;;;7.55;;
42196;SDS011;27866;48.146;17.098;2023-05-14T05:52:27;11.63;;;7.25;;
42196;SDS011;27866;48.146;17.098;2023-05-14T05:56:39;11.18;;;7.35;;
42196;SDS011;27866;48.146;17.098;2023-05-14T06:00:50;9.60;;;7.25;;
42196;SDS011;27866;48.146;17.098;2023-05-14T06:05:02;11.95;;;7.78;;
42196;SDS011;27866;48.146;17.098;2023-05-14T06:09:14;10.18;;;7.05;;
42196;SDS011;27866;48.146;17.098;2023-05-14T06:13:25;12.18;;;7.30;;
42196;SDS011;27866;48.146;17.098;2023-05-14T06:17:37;10.65;;;7.63;;
42196;SDS011;27866;48.146;17.098;2023-05-14T06:21:48;10.13;;;7.63;;
42196;SDS011;27866;48.146;17.098;2023-05-14T06:25:59;9.35;;;6.47;;
42196;SDS011;27866;48.146;17.098;2023-05-14T06:30:11;8.48;;;7.22;;
42196;SDS011;27866;48.146;17.098;2023-05-14T06:34:23;10.98;;;6.97;;
42196;SDS011;27866;48.146;17.098;2023-05-14T06:38:34;10.50;;;7.75;;
42196;SDS011;27866;48.146;17.098;2023-05-14T06:42:45;9.15;;;7.07;;
42196;SDS011;27866;48.146;17.098;2023-05-14T06:46:57;9.38;;;7.90;;
42196;SDS011;27866;48.146;17.098;2023-05-14T06:51:08;11.57;;;7.85;;
42196;SDS011;27866;48.146;17.098;2023-05-14T06:55:20;10.77;;;7.97;;
42196;SDS011;27866;48.146;17.098;2023-05-14T06:59:31;9.40;;;7.22;;
42196;SDS011;27866;48.146;17.098;2023-05-14T07:03:43;13.40;;;7.75;;
42196;SDS011;27866;48.146;17.098;2023-05-14T07:07:54;10.82;;;6.95;;
42196;SDS011;27866;48.146;17.098;2023-05-14T07:12:05;8.60;;;6.82;;
42196;SDS011;27866;48.146;17.098;2023-05-14T07:16:17;9.18;;;7.18;;
42196;SDS011;27866;48.146;17.098;2023-05-14T07:20:29;11.80;;;7.30;;
42196;SDS011;27866;48.146;17.098;2023-05-14T07:24:40;9.75;;;7.68;;
42196;SDS011;27866;48.146;17.098;2023-05-14T07:28:51;10.05;;;6.78;;
42196;SDS011;27866;48.146;17.098;2023-05-14T07:33:02;8.93;;;6.80;;
42196;SDS011;27866;48.146;17.098;2023-05-14T07:37:14;9.38;;;6.90;;
42196;SDS011;27866;48.146;17.098;2023-05-14T07:41:25;10.40;;;7.35;;
42196;SDS011;27866;48.146;17.098;2023-05-14T07:45:36;8.70;;;7.00;;
42196;SDS011;27866;48.146;17.098;2023-05-14T07:49:54;11.80;;;7.30;;
42196;SDS011;27866;48.146;17.098;2023-05-14T07:54:06;11.35;;;7.20;;
42196;SDS011;27866;48.146;17.098;2023-05-14T07:58:17;11.25;;;7.53;;
42196;SDS011;27866;48.146;17.098;2023-05-14T08:02:28;10.35;;;7.72;;
42196;SDS011;27866;48.146;17.098;2023-05-14T08:06:39;10.05;;;7.90;;
42196;SDS011;27866;48.146;17.098;2023-05-14T08:10:51;10.93;;;7.80;;
42196;SDS011;27866;48.146;17.098;2023-05-14T08:15:02;9.85;;;6.78;;
42196;SDS011;27866;48.146;17.098;2023-05-14T08:19:17;11.27;;;6.97;;
42196;SDS011;27866;48.146;17.098;2023-05-14T08:23:28;10.73;;;6.97;;
42196;SDS011;27866;48.146;17.098;2023-05-14T08:27:39;10.90;;;6.60;;
42196;SDS011;27866;48.146;17.098;2023-05-14T08:31:50;11.88;;;6.78;;
42196;SDS011;27866;48.146;17.098;2023-05-14T08:36:02;9.82;;;6.95;;
42196;SDS011;27866;48.146;17.098;2023-05-14T08:40:13;8.65;;;6.50;;
42196;SDS011;27866;48.146;17.098;2023-05-14T08:44:31;9.07;;;6.80;;
42196;SDS011;27866;48.146;17.098;2023-05-14T08:48:59;8.57;;;6.60;;
42196;SDS011;27866;48.146;17.098;2023-05-14T08:53:24;8.27;;;6.53;;
42196;SDS011;27866;48.146;17.098;2023-05-14T08:57:36;13.27;;;7.05;;
42196;SDS011;27866;48.146;17.098;2023-05-14T09:01:48;9.52;;;6.55;;
42196;SDS011;27866;48.146;17.098;2023-05-14T09:06:03;8.00;;;6.30;;
42196;SDS011;27866;48.146;17.098;2023-05-14T09:10:16;8.63;;;7.30;;
42196;SDS011;27866;48.146;17.098;2023-05-14T09:14:28;12.07;;;6.60;;
42196;SDS011;27866;48.146;17.098;2023-05-14T09:18:42;10.38;;;6.35;;
42196;SDS011;27866;48.146;17.098;2023-05-14T09:22:54;8.43;;;6.75;;
42196;SDS011;27866;48.146;17.098;2023-05-14T09:27:06;10.82;;;7.18;;
42196;SDS011;27866;48.146;17.098;2023-05-14T09:31:19;12.97;;;7.00;;
42196;SDS011;27866;48.146;17.098;2023-05-14T09:35:31;9.20;;;6.88;;
42196;SDS011;27866;48.146;17.098;2023-05-14T09:39:42;10.10;;;7.30;;
42196;SDS011;27866;48.146;17.098;2023-05-14T09:43:53;12.70;;;7.03;;
42196;SDS011;27866;48.146;17.098;2023-05-14T09:48:07;7.78;;;6.70;;
42196;SDS011;27866;48.146;17.098;2023-05-14T09:52:18;10.10;;;7.13;;
42196;SDS011;27866;48.146;17.098;2023-05-14T09:56:29;11.60;;;7.32;;
42196;SDS011;27866;48.146;17.098;2023-05-14T10:00:43;13.02;;;7.97;;
42196;SDS011;27866;48.146;17.098;2023-05-14T10:04:56;8.77;;;6.90;;
42196;SDS011;27866;48.146;17.098;2023-05-14T10:09:12;11.38;;;7.57;;
42196;SDS011;27866;48.146;17.098;2023-05-14T10:13:29;12.40;;;7.63;;
42196;SDS011;27866;48.146;17.098;2023-05-14T10:17:51;10.98;;;7.47;;
42196;SDS011;27866;48.146;17.098;2023-05-14T10:22:07;12.32;;;8.55;;
42196;SDS011;27866;48.146;17.098;2023-05-14T10:26:20;13.60;;;8.40;;
42196;SDS011;27866;48.146;17.098;2023-05-14T10:30:32;9.38;;;7.75;;
42196;SDS011;27866;48.146;17.098;2023-05-14T10:34:43;10.88;;;7.90;;
42196;SDS011;27866;48.146;17.098;2023-05-14T10:38:54;11.38;;;8.10;;
42196;SDS011;27866;48.146;17.098;2023-05-14T10:43:06;12.30;;;7.57;;
42196;SDS011;27866;48.146;17.098;2023-05-14T10:47:20;15.88;;;7.50;;
42196;SDS011;27866;48.146;17.098;2023-05-14T10:51:32;11.75;;;6.57;;
42196;SDS011;27866;48.146;17.098;2023-05-14T10:55:43;11.13;;;7.03;;
42196;SDS011;27866;48.146;17.098;2023-05-14T10:59:56;12.10;;;7.95;;
42196;SDS011;27866;48.146;17.098;2023-05-14T11:04:17;10.02;;;7.30;;
42196;SDS011;27866;48.146;17.098;2023-05-14T11:08:32;10.68;;;7.38;;
42196;SDS011;27866;48.146;17.098;2023-05-14T11:12:44;11.98;;;6.80;;
42196;SDS011;27866;48.146;17.098;2023-05-14T11:21:09;10.35;;;7.72;;
42196;SDS011;27866;48.146;17.098;2023-05-14T11:25:20;12.70;;;8.13;;
42196;SDS011;27866;48.146;17.098;2023-05-14T11:29:38;12.38;;;7.75;;
42196;SDS011;27866;48.146;17.098;2023-05-14T11:33:58;9.18;;;7.25;;
42196;SDS011;27866;48.146;17.098;2023-05-14T11:38:14;10.48;;;7.32;;
42196;SDS011;27866;48.146;17.098;2023-05-14T11:42:29;10.57;;;6.93;;
42196;SDS011;27866;48.146;17.098;2023-05-14T11:46:41;9.55;;;6.65;;
42196;SDS011;27866;48.146;17.098;2023-05-14T11:51:04;11.05;;;7.28;;
42196;SDS011;27866;48.146;17.098;2023-05-14T11:55:16;13.43;;;7.95;;
42196;SDS011;27866;48.146;17.098;2023-05-14T11:59:28;11.02;;;6.80;;
42196;SDS011;27866;48.146;17.098;2023-05-14T12:03:41;8.20;;;6.37;;
42196;SDS011;27866;48.146;17.098;2023-05-14T12:07:52;9.82;;;6.88;;
42196;SDS011;27866;48.146;17.098;2023-05-14T12:12:09;8.75;;;6.75;;
42196;SDS011;27866;48.146;17.098;2023-05-14T12:16:21;11.70;;;6.70;;
42196;SDS011;27866;48.146;17.098;2023-05-14T12:20:33;9.15;;;6.82;;
42196;SDS011;27866;48.146;17.098;2023-05-14T12:24:54;9.45;;;7.45;;
42196;SDS011;27866;48.146;17.098;2023-05-14T12:29:07;10.90;;;7.55;;
42196;SDS011;27866;48.146;17.098;2023-05-14T12:33:21;10.93;;;7.28;;
42196;SDS011;27866;48.146;17.098;2023-05-14T12:37:33;9.48;;;7.25;;
42196;SDS011;27866;48.146;17.098;2023-05-14T12:41:46;10.35;;;6.95;;
42196;SDS011;27866;48.146;17.098;2023-05-14T12:45:57;9.88;;;6.80;;
42196;SDS011;27866;48.146;17.098;2023-05-14T12:50:09;10.38;;;6.60;;
42196;SDS011;27866;48.146;17.098;2023-05-14T12:54:20;8.32;;;6.50;;
42196;SDS011;27866;48.146;17.098;2023-05-14T12:58:31;9.10;;;6.35;;
42196;SDS011;27866;48.146;17.098;2023-05-14T13:02:43;8.55;;;5.55;;
42196;SDS011;27866;48.146;17.098;2023-05-14T13:06:54;9.38;;;6.40;;
42196;SDS011;27866;48.146;17.098;2023-05-14T13:11:05;9.70;;;6.30;;
42196;SDS011;27866;48.146;17.098;2023-05-14T13:15:17;11.05;;;6.75;;
42196;SDS011;27866;48.146;17.098;2023-05-14T13:19:28;9.40;;;6.90;;
42196;SDS011;27866;48.146;17.098;2023-05-14T13:23:40;9.57;;;6.70;;
42196;SDS011;27866;48.146;17.098;2023-05-14T13:27:51;9.57;;;7.20;;
42196;SDS011;27866;48.146;17.098;2023-05-14T13:32:02;7.88;;;6.45;;
42196;SDS011;27866;48.146;17.098;2023-05-14T13:36:14;9.65;;;7.53;;
42196;SDS011;27866;48.146;17.098;2023-05-14T13:40:25;8.52;;;6.65;;
42196;SDS011;27866;48.146;17.098;2023-05-14T13:44:36;7.80;;;6.78;;
42196;SDS011;27866;48.146;17.098;2023-05-14T13:48:48;9.95;;;7.00;;
42196;SDS011;27866;48.146;17.098;2023-05-14T13:52:59;10.57;;;7.32;;
42196;SDS011;27866;48.146;17.098;2023-05-14T13:57:10;12.27;;;7.43;;
42196;SDS011;27866;48.146;17.098;2023-05-14T14:01:21;10.63;;;7.22;;
42196;SDS011;27866;48.146;17.098;2023-05-14T14:05:36;11.85;;;7.50;;
42196;SDS011;27866;48.146;17.098;2023-05-14T14:09:47;10.85;;;7.97;;
42196;SDS011;27866;48.146;17.098;2023-05-14T14:13:58;11.05;;;7.90;;
42196;SDS011;27866;48.146;17.098;2023-05-14T14:18:09;14.48;;;8.32;;
42196;SDS011;27866;48.146;17.098;2023-05-14T14:22:20;11.55;;;8.43;;
42196;SDS011;27866;48.146;17.098;2023-05-14T14:26:32;14.00;;;9.00;;
42196;SDS011;27866;48.146;17.098;2023-05-14T14:30:43;14.05;;;9.32;;
42196;SDS011;27866;48.146;17.098;2023-05-14T14:34:54;11.65;;;8.52;;
42196;SDS011;27866;48.146;17.098;2023-05-14T14:39:05;14.93;;;9.07;;
42196;SDS011;27866;48.146;17.098;2023-05-14T14:43:16;12.52;;;9.07;;
42196;SDS011;27866;48.146;17.098;2023-05-14T14:47:28;13.43;;;9.38;;
42196;SDS011;27866;48.146;17.098;2023-05-14T14:51:39;11.63;;;9.45;;
42196;SDS011;27866;48.146;17.098;2023-05-14T14:55:51;11.38;;;9.10;;
42196;SDS011;27866;48.146;17.098;2023-05-14T15:00:02;14.90;;;9.50;;
42196;SDS011;27866;48.146;17.098;2023-05-14T15:04:15;14.20;;;9.52;;
42196;SDS011;27866;48.146;17.098;2023-05-14T15:08:26;15.70;;;11.43;;
42196;SDS011;27866;48.146;17.098;2023-05-14T15:12:38;14.15;;;10.25;;
42196;SDS011;27866;48.146;17.098;2023-05-14T15:16:49;12.18;;;9.85;;
42196;SDS011;27866;48.146;17.098;2023-05-14T15:21:00;11.50;;;9.20;;
42196;SDS011;27866;48.146;17.098;2023-05-14T15:25:12;13.30;;;10.32;;
42196;SDS011;27866;48.146;17.098;2023-05-14T15:29:24;12.55;;;9.40;;
42196;SDS011;27866;48.146;17.098;2023-05-14T15:33:35;14.88;;;10.23;;
42196;SDS011;27866;48.146;17.098;2023-05-14T15:37:47;12.90;;;10.07;;
42196;SDS011;27866;48.146;17.098;2023-05-14T15:41:58;16.60;;;11.00;;
42196;SDS011;27866;48.146;17.098;2023-05-14T15:46:09;16.02;;;10.93;;
42196;SDS011;27866;48.146;17.098;2023-05-14T15:50:21;15.82;;;10.52;;
42196;SDS011;27866;48.146;17.098;2023-05-14T15:54:32;12.85;;;9.55;;
42196;SDS011;27866;48.146;17.098;2023-05-14T15:58:43;13.23;;;9.63;;
42196;SDS011;27866;48.146;17.098;2023-05-14T16:02:56;14.00;;;9.98;;
42196;SDS011;27866;48.146;17.098;2023-05-14T16:07:07;12.68;;;9.60;;
42196;SDS011;27866;48.146;17.098;2023-05-14T16:11:19;17.80;;;10.52;;
42196;SDS011;27866;48.146;17.098;2023-05-14T16:15:30;17.52;;;10.23;;
42196;SDS011;27866;48.146;17.098;2023-05-14T16:19:42;12.60;;;9.68;;
42196;SDS011;27866;48.146;17.098;2023-05-14T16:23:53;13.40;;;10.38;;
42196;SDS011;27866;48.146;17.098;2023-05-14T16:28:04;12.65;;;9.60;;
42196;SDS011;27866;48.146;17.098;2023-05-14T16:32:17;12.85;;;8.73;;
42196;SDS011;27866;48.146;17.098;2023-05-14T16:36:28;13.73;;;9.32;;
42196;SDS011;27866;48.146;17.098;2023-05-14T16:40:40;19.27;;;9.60;;
42196;SDS011;27866;48.146;17.098;2023-05-14T16:44:52;13.10;;;9.05;;
42196;SDS011;27866;48.146;17.098;2023-05-14T16:49:03;12.20;;;9.18;;
42196;SDS011;27866;48.146;17.098;2023-05-14T16:53:14;17.83;;;10.85;;
42196;SDS011;27866;48.146;17.098;2023-05-14T16:57:25;14.85;;;10.48;;
42196;SDS011;27866;48.146;17.098;2023-05-14T17:01:36;12.60;;;9.43;;
42196;SDS011;27866;48.146;17.098;2023-05-14T17:05:48;14.82;;;10.00;;
42196;SDS011;27866;48.146;17.098;2023-05-14T17:09:59;14.27;;;10.85;;
42196;SDS011;27866;48.146;17.098;2023-05-14T17:14:10;15.18;;;10.07;;
42196;SDS011;27866;48.146;17.098;2023-05-14T17:18:21;13.88;;;9.80;;
42196;SDS011;27866;48.146;17.098;2023-05-14T17:22:33;15.25;;;10.90;;
42196;SDS011;27866;48.146;17.098;2023-05-14T17:26:44;12.93;;;10.90;;
42196;SDS011;27866;48.146;17.098;2023-05-14T17:30:55;17.67;;;11.07;;
42196;SDS011;27866;48.146;17.098;2023-05-14T17:35:07;18.40;;;11.68;;
42196;SDS011;27866;48.146;17.098;2023-05-14T17:39:19;18.60;;;11.07;;
42196;SDS011;27866;48.146;17.098;2023-05-14T17:43:30;21.08;;;11.85;;
42196;SDS011;27866;48.146;17.098;2023-05-14T17:47:42;20.05;;;13.05;;
42196;SDS011;27866;48.146;17.098;2023-05-14T17:51:53;18.85;;;12.10;;
42196;SDS011;27866;48.146;17.098;2023-05-14T17:56:04;18.55;;;13.85;;
42196;SDS011;27866;48.146;17.098;2023-05-14T18:00:16;17.90;;;12.88;;
42196;SDS011;27866;48.146;17.098;2023-05-14T18:04:27;21.15;;;14.38;;
42196;SDS011;27866;48.146;17.098;2023-05-14T18:08:38;23.35;;;12.98;;
42196;SDS011;27866;48.146;17.098;2023-05-14T18:12:50;19.15;;;12.98;;
42196;SDS011;27866;48.146;17.098;2023-05-14T18:17:01;18.95;;;13.68;;
42196;SDS011;27866;48.146;17.098;2023-05-14T18:21:13;17.42;;;13.30;;
42196;SDS011;27866;48.146;17.098;2023-05-14T18:25:24;20.48;;;13.63;;
42196;SDS011;27866;48.146;17.098;2023-05-14T18:29:35;17.83;;;13.52;;
42196;SDS011;27866;48.146;17.098;2023-05-14T18:33:47;19.60;;;13.18;;
42196;SDS011;27866;48.146;17.098;2023-05-14T18:37:58;18.00;;;11.23;;
42196;SDS011;27866;48.146;17.098;2023-05-14T18:42:09;17.98;;;11.18;;
42196;SDS011;27866;48.146;17.098;2023-05-14T18:46:20;18.10;;;13.15;;
42196;SDS011;27866;48.146;17.098;2023-05-14T18:50:32;17.58;;;12.95;;
42196;SDS011;27866;48.146;17.098;2023-05-14T18:54:43;18.55;;;11.85;;
42196;SDS011;27866;48.146;17.098;2023-05-14T18:58:54;18.67;;;11.55;;
42196;SDS011;27866;48.146;17.098;2023-05-14T19:03:05;18.15;;;12.40;;
42196;SDS011;27866;48.146;17.098;2023-05-14T19:07:17;16.80;;;11.80;;
42196;SDS011;27866;48.146;17.098;2023-05-14T19:11:28;15.98;;;11.55;;
42196;SDS011;27866;48.146;17.098;2023-05-14T19:15:39;17.27;;;12.18;;
42196;SDS011;27866;48.146;17.098;2023-05-14T19:19:51;19.58;;;11.73;;
42196;SDS011;27866;48.146;17.098;2023-05-14T19:24:02;15.43;;;11.88;;
42196;SDS011;27866;48.146;17.098;2023-05-14T19:28:14;15.15;;;11.00;;
42196;SDS011;27866;48.146;17.098;2023-05-14T19:32:25;15.30;;;10.27;;
42196;SDS011;27866;48.146;17.098;2023-05-14T19:36:36;14.13;;;9.70;;
42196;SDS011;27866;48.146;17.098;2023-05-14T19:40:47;14.13;;;9.35;;
42196;SDS011;27866;48.146;17.098;2023-05-14T19:45:00;11.13;;;8.23;;
42196;SDS011;27866;48.146;17.098;2023-05-14T19:49:11;10.07;;;7.38;;
42196;SDS011;27866;48.146;17.098;2023-05-14T19:53:23;8.45;;;6.82;;
42196;SDS011;27866;48.146;17.098;2023-05-14T19:57:38;9.07;;;6.95;;
42196;SDS011;27866;48.146;17.098;2023-05-14T20:01:51;8.50;;;6.18;;
42196;SDS011;27866;48.146;17.098;2023-05-14T20:06:03;7.78;;;5.88;;
42196;SDS011;27866;48.146;17.098;2023-05-14T20:10:16;8.25;;;6.13;;
42196;SDS011;27866;48.146;17.098;2023-05-14T20:14:27;9.38;;;6.18;;
42196;SDS011;27866;48.146;17.098;2023-05-14T20:18:38;9.13;;;6.30;;
42196;SDS011;27866;48.146;17.098;2023-05-14T20:22:49;8.13;;;5.97;;
42196;SDS011;27866;48.146;17.098;2023-05-14T20:27:01;8.85;;;6.95;;
42196;SDS011;27866;48.146;17.098;2023-05-14T20:31:12;11.50;;;7.10;;
42196;SDS011;27866;48.146;17.098;2023-05-14T20:35:23;7.40;;;6.03;;
42196;SDS011;27866;48.146;17.098;2023-05-14T20:39:35;8.35;;;6.15;;
42196;SDS011;27866;48.146;17.098;2023-05-14T20:43:46;8.75;;;6.43;;
42196;SDS011;27866;48.146;17.098;2023-05-14T20:47:57;7.10;;;5.82;;
42196;SDS011;27866;48.146;17.098;2023-05-14T20:52:08;7.55;;;5.82;;
42196;SDS011;27866;48.146;17.098;2023-05-14T20:56:20;10.30;;;6.43;;
42196;SDS011;27866;48.146;17.098;2023-05-14T21:00:31;8.00;;;5.70;;
42196;SDS011;27866;48.146;17.098;2023-05-14T21:04:43;8.30;;;5.97;;
42196;SDS011;27866;48.146;17.098;2023-05-14T21:08:54;7.10;;;5.72;;
42196;SDS011;27866;48.146;17.098;2023-05-14T21:13:05;6.78;;;5.93;;
42196;SDS011;27866;48.146;17.098;2023-05-14T21:17:17;7.53;;;5.88;;
42196;SDS011;27866;48.146;17.098;2023-05-14T21:21:28;8.30;;;5.55;;
42196;SDS011;27866;48.146;17.098;2023-05-14T21:25:39;8.05;;;6.03;;
42196;SDS011;27866;48.146;17.098;2023-05-14T21:29:51;8.07;;;5.78;;
42196;SDS011;27866;48.146;17.098;2023-05-14T21:34:02;8.15;;;5.75;;
42196;SDS011;27866;48.146;17.098;2023-05-14T21:38:13;8.10;;;6.28;;
42196;SDS011;27866;48.146;17.098;2023-05-14T21:42:25;9.43;;;5.88;;
42196;SDS011;27866;48.146;17.098;2023-05-14T21:46:36;7.82;;;6.07;;
42196;SDS011;27866;48.146;17.098;2023-05-14T21:50:47;9.60;;;6.53;;
42196;SDS011;27866;48.146;17.098;2023-05-14T21:54:59;7.65;;;6.30;;
42196;SDS011;27866;48.146;17.098;2023-05-14T21:59:10;11.02;;;6.95;;
42196;SDS011;27866;48.146;17.098;2023-05-14T22:03:21;10.52;;;7.72;;
42196;SDS011;27866;48.146;17.098;2023-05-14T22:07:32;9.82;;;7.82;;
42196;SDS011;27866;48.146;17.098;2023-05-14T22:11:43;9.85;;;7.82;;
42196;SDS011;27866;48.146;17.098;2023-05-14T22:15:55;12.38;;;8.32;;
42196;SDS011;27866;48.146;17.098;2023-05-14T22:20:08;9.55;;;7.68;;
42196;SDS011;27866;48.146;17.098;2023-05-14T22:24:19;12.65;;;8.85;;
42196;SDS011;27866;48.146;17.098;2023-05-14T22:28:30;10.60;;;7.80;;
42196;SDS011;27866;48.146;17.098;2023-05-14T22:32:42;11.68;;;8.10;;
42196;SDS011;27866;48.146;17.098;2023-05-14T22:36:53;10.38;;;7.90;;
42196;SDS011;27866;48.146;17.098;2023-05-14T22:41:04;6.47;;;5.40;;
42196;SDS011;27866;48.146;17.098;2023-05-14T22:45:15;6.28;;;4.80;;
42196;SDS011;27866;48.146;17.098;2023-05-14T22:49:26;5.65;;;4.70;;
42196;SDS011;27866;48.146;17.098;2023-05-14T22:53:37;6.07;;;4.90;;
42196;SDS011;27866;48.146;17.098;2023-05-14T22:57:49;4.78;;;3.97;;
42196;SDS011;27866;48.146;17.098;2023-05-14T23:02:00;4.88;;;4.30;;
42196;SDS011;27866;48.146;17.098;2023-05-14T23:06:13;4.72;;;3.40;;
42196;SDS011;27866;48.146;17.098;2023-05-14T23:10:24;4.50;;;3.80;;
42196;SDS011;27866;48.146;17.098;2023-05-14T23:14:36;4.85;;;4.00;;
42196;SDS011;27866;48.146;17.098;2023-05-14T23:18:48;3.53;;;3.22;;
42196;SDS011;27866;48.146;17.098;2023-05-14T23:22:59;4.55;;;3.47;;
42196;SDS011;27866;48.146;17.098;2023-05-14T23:27:10;3.35;;;2.92;;
42196;SDS011;27866;48.146;17.098;2023-05-14T23:31:21;4.32;;;3.60;;
42196;SDS011;27866;48.146;17.098;2023-05-14T23:35:33;4.65;;;3.47;;
42196;SDS011;27866;48.146;17.098;2023-05-14T23:39:48;3.50;;;3.20;;
42196;SDS011;27866;48.146;17.098;2023-05-14T23:44:00;6.05;;;3.55;;
42196;SDS011;27866;48.146;17.098;2023-05-14T23:48:11;4.20;;;3.47;;
42196;SDS011;27866;48.146;17.098;2023-05-14T23:52:22;4.43;;;3.80;;
42196;SDS011;27866;48.146;17.098;2023-05-14T23:56:34;8.85;;;5.82;;
